Latest Weather Observations for Leigh Creek

IDS60801

Issued at 9:31 pm CST Tuesday 26 May 2015 (issued every 30 minutes, with the page automatically refreshed every 10 minutes)

About weather observations | Map of weather stations | Latest weather observations for SA | Other Formats
Station Details ID: 017110 Name: LEIGH CREEK AIRPORT Lat: -30.60 Lon: 138.42 Height: 258.8 m
Data from the previous 72 hours. | See also: Recent months at Leigh Creek
Date/Time
CST
Temp
°C
App
Temp
°C
Dew
Point
Rel
Hum
%
Delta-T
°C
Wind Press
QNH
hPa
Press
MSL
hPa
Rain
since 9 am
mm
Dir
 
Spd
km/h
Gust
km/h
Spd
kts
Gust
kts
26/09:30pm 17.3 14.7 5.9 47 5.6 E 9 11 5 6 1022.9 1022.6 0.0
26/09:00pm 17.2 16.2 5.8 47 5.6 CALM 0 7 0 4 1022.9 1022.6 0.0
26/08:30pm 18.3 16.2 5.8 44 6.2 S 6 9 3 5 1022.9 1022.6 0.0
26/08:00pm 18.1 15.5 6.0 45 6.0 SSW 9 11 5 6 1023.1 1022.8 0.0
26/07:30pm 17.7 15.6 5.9 46 5.8 SSW 6 7 3 4 1022.7 1022.4 0.0
26/07:00pm 19.1 17.4 5.9 42 6.6 NNW 4 7 2 4 1022.5 1022.2 0.0
26/06:30pm 19.7 18.7 5.7 40 7.0 CALM 0 0 0 0 1022.3 1022.0 0.0
26/06:00pm 20.1 18.1 6.1 40 7.0 NNW 6 7 3 4 1022.2 1021.9 0.0
26/05:30pm 21.0 18.7 5.8 37 7.7 NNW 7 9 4 5 1022.0 1021.7 0.0
26/05:00pm 21.7 18.3 6.0 36 8.0 N 13 15 7 8 1022.1 1021.8 0.0
26/04:30pm 22.2 18.8 6.0 35 8.2 NNW 13 17 7 9 1022.1 1021.8 0.0
26/04:00pm 22.6 19.5 5.5 33 8.7 NNW 11 17 6 9 1021.9 1021.6 0.0
26/03:30pm 22.9 19.9 6.2 34 8.6 NNW 11 17 6 9 1022.0 1021.7 0.0
26/03:00pm 22.9 20.7 6.2 34 8.6 WNW 7 13 4 7 1022.1 1021.8 0.0
26/02:30pm 22.6 18.5 6.0 34 8.5 NNW 17 20 9 11 1022.3 1022.0 0.0
26/02:00pm 22.5 18.0 5.9 34 8.5 N 19 30 10 16 1022.6 1022.3 0.0
26/01:30pm 22.5 18.3 5.9 34 8.4 N 17 22 9 12 1023.1 1022.8 0.0
26/01:00pm 22.5 18.3 5.9 34 8.5 NNW 17 24 9 13 1023.4 1023.2 0.0
26/12:30pm 21.9 17.5 4.9 33 8.5 NNW 17 22 9 12 1023.6 1023.4 0.0
26/12:00pm 22.1 17.8 5.1 33 8.5 N 17 26 9 14 1024.2 1024.0 0.0
26/11:30am 22.2 17.4 4.7 32 8.7 N 19 26 10 14 1024.8 1024.5 0.0
26/11:00am 21.1 16.8 5.1 35 8.0 N 17 24 9 13 1025.2 1024.9 0.0
26/10:30am 21.3 16.8 4.4 33 8.3 N 17 22 9 12 1025.5 1025.2 0.0
26/10:00am 20.1 17.4 5.4 38 7.3 N 9 13 5 7 1026.0 1025.7 0.0
26/09:30am 19.6 17.1 6.7 43 6.5 NNE 9 15 5 8 1026.1 1025.8 0.0
26/09:00am 17.7 16.1 8.6 55 4.7 E 7 11 4 6 1025.9 1025.6 0.0
26/08:30am 15.7 13.8 8.9 64 3.5 ESE 9 13 5 7 1026.2 1025.9 0.0
26/08:00am 14.6 12.9 8.5 67 3.1 NE 7 11 4 6 1026.1 1025.8 0.0
26/07:30am 13.8 13.1 8.4 70 2.7 S 2 7 1 4 1026.0 1025.7 0.0
26/07:00am 14.6 12.7 7.6 63 3.5 S 7 9 4 5 1025.7 1025.4 0.0
26/06:30am 14.3 12.2 8.3 67 3.0 SE 9 11 5 6 1025.3 1025.0 0.0
26/06:00am 14.3 12.4 7.6 64 3.3 SSE 7 9 4 5 1025.1 1024.8 0.0
26/05:30am 14.7 11.8 6.5 58 4.0 ESE 11 13 6 7 1024.9 1024.6 0.0
26/05:00am 14.8 12.2 5.9 55 4.3 E 9 13 5 7 1025.1 1024.8 0.0
26/04:30am 14.8 11.8 5.9 55 4.3 ESE 11 13 6 7 1025.2 1024.9 0.0
26/04:00am 15.5 13.3 5.4 51 4.9 SSE 6 9 3 5 1025.6 1025.3 0.0
26/03:30am 15.5 13.1 5.4 51 4.8 SSE 7 9 4 5 1025.7 1025.4 0.0
26/03:00am 15.8 13.6 5.4 50 5.0 SE 6 7 3 4 1025.8 1025.5 0.0
26/02:30am 15.9 14.1 5.5 50 5.0 ENE 4 6 2 3 1025.9 1025.6 0.0
26/02:00am 16.5 14.2 5.5 48 5.4 NE 7 13 4 7 1025.3 1025.0 0.0
26/01:30am 16.3 13.9 5.3 48 5.3 NE 7 11 4 6 1025.7 1025.4 0.0
26/01:00am 15.0 13.2 5.5 53 4.6 ENE 4 11 2 6 1025.8 1025.5 0.0
26/12:30am 16.0 14.2 5.3 49 5.1 ENE 4 7 2 4 1025.8 1025.5 0.0
26/12:00am 16.3 13.1 5.3 48 5.3 E 11 13 6 7 1025.7 1025.4 0.0
 
Date/Time
CST
Temp
°C
App
Temp
°C
Dew
Point
Rel
Hum
%
Delta-T
°C
Wind Press
QNH
hPa
Press
MSL
hPa
Rain
since 9 am
mm
Dir
 
Spd
km/h
Gust
km/h
Spd
kts
Gust
kts
25/11:30pm 16.4 13.7 5.4 48 5.3 ESE 9 13 5 7 1026.1 1025.8 0.0
25/11:00pm 16.7 12.0 5.3 47 5.5 E 19 22 10 12 1026.0 1025.7 0.0
25/10:30pm 16.6 13.5 5.6 48 5.3 E 11 15 6 8 1026.4 1026.1 0.0
25/10:00pm 16.8 14.5 5.7 48 5.4 ESE 7 11 4 6 1026.5 1026.3 0.0
25/09:30pm 16.5 14.5 6.1 50 5.1 E 6 9 3 5 1026.8 1026.6 0.0
25/09:00pm 16.7 15.4 5.9 49 5.3 E 2 7 1 4 1026.7 1026.5 0.0
25/08:30pm 17.2 13.5 6.1 48 5.5 E 15 17 8 9 1026.4 1026.1 0.0
25/08:00pm 17.4 14.0 6.0 47 5.6 E 13 17 7 9 1026.4 1026.1 0.0
25/07:30pm 17.2 13.4 5.8 47 5.6 E 15 17 8 9 1026.0 1025.7 0.0
25/07:00pm 17.4 13.9 5.4 45 5.9 E 13 17 7 9 1025.7 1025.4 0.0
25/06:30pm 17.4 16.2 4.7 43 6.1 CALM 0 4 0 2 1026.0 1025.7 0.0
25/06:00pm 18.7 17.5 4.8 40 6.7 CALM 0 0 0 0 1025.1 1024.8 0.0
25/05:30pm 19.7 17.4 4.6 37 7.3 W 6 9 3 5 1025.6 1025.3 0.0
25/05:00pm 20.6 19.4 4.6 35 7.9 CALM 0 0 0 0 1025.2 1024.9 0.0
25/04:30pm 21.2 19.6 4.3 33 8.3 NW 2 9 1 5 1025.2 1024.9 0.0
25/04:00pm 21.4 18.5 4.5 33 8.4 WSW 9 13 5 7 1025.1 1024.8 0.0
25/03:30pm 21.7 19.1 4.3 32 8.5 N 7 9 4 5 1024.2 1024.0 0.0
25/03:00pm 22.0 20.0 4.6 32 8.6 NNE 4 9 2 5 1024.3 1024.1 0.0
25/02:30pm 22.2 19.0 5.2 33 8.5 N 11 15 6 8 1024.3 1024.1 0.0
25/02:00pm 22.0 19.2 5.0 33 8.5 NNE 9 17 5 9 1024.9 1024.6 0.0
25/01:30pm 21.3 17.7 4.8 34 8.2 N 13 20 7 11 1024.9 1024.6 0.0
25/01:00pm 21.2 17.1 4.3 33 8.3 N 15 26 8 14 1025.6 1025.3 0.0
25/12:30pm 21.4 17.0 4.5 33 8.3 N 17 22 9 12 1026.1 1025.8 0.0
25/12:00pm 21.4 16.9 4.0 32 8.5 N 17 24 9 13 1026.6 1026.4 0.0
25/11:30am 21.5 16.7 4.6 33 8.3 N 19 24 10 13 1027.0 1026.8 0.0
25/11:00am 21.2 16.2 4.7 34 8.2 N 20 28 11 15 1027.4 1027.2 0.0
25/10:30am 20.9 16.1 4.9 35 7.9 N 19 22 10 12 1027.2 1027.0 0.0
25/10:00am 19.9 15.8 4.4 36 7.6 NNE 15 22 8 12 1027.4 1027.2 0.0
25/09:30am 17.9 15.3 6.1 46 5.8 E 9 11 5 6 1027.6 1027.4 0.0
25/09:00am 15.8 12.9 6.3 53 4.6 ESE 11 13 6 7 1027.8 1027.6 0.0
25/08:30am 13.5 12.2 6.1 61 3.5 ESE 2 7 1 4 1028.1 1027.9 0.0
25/08:00am 11.1 9.0 5.6 69 2.6 ESE 6 11 3 6 1027.9 1027.7 0.0
25/07:30am 10.8 8.0 5.3 69 2.5 ESE 9 11 5 6 1027.8 1027.6 0.0
25/07:00am 11.2 9.1 5.7 69 2.6 SSE 6 7 3 4 1027.7 1027.5 0.0
25/06:30am 11.0 8.7 5.7 70 2.5 SSE 7 9 4 5 1027.3 1027.1 0.0
25/06:00am 9.9 8.5 5.3 73 2.1 SE 2 9 1 5 1027.0 1026.8 0.0
25/05:30am 9.7 7.2 4.5 70 2.3 ESE 7 11 4 6 1026.5 1026.3 0.0
25/05:00am 10.9 8.5 5.2 68 2.6 SE 7 9 4 5 1026.5 1026.3 0.0
25/04:30am 11.8 9.4 5.4 65 3.0 S 7 11 4 6 1026.4 1026.1 0.0
25/04:00am 11.4 9.2 5.3 66 2.8 WSW 6 7 3 4 1026.6 1026.4 0.0
25/03:30am 11.8 9.6 5.4 65 3.0 S 6 7 3 4 1026.4 1026.1 0.0
25/03:00am 13.0 10.7 5.7 61 3.5 S 7 13 4 7 1026.6 1026.4 0.0
25/02:30am 12.1 9.7 5.3 63 3.2 SE 7 11 4 6 1026.5 1026.3 0.0
25/02:00am 13.4 8.2 5.6 59 3.7 E 22 26 12 14 1026.2 1025.9 0.0
25/01:30am 14.0 9.4 5.6 57 4.0 E 19 22 10 12 1026.3 1026.0 0.0
25/01:00am 14.5 9.7 5.6 55 4.3 E 20 26 11 14 1026.4 1026.1 0.0
25/12:30am 14.7 9.5 5.5 54 4.4 E 22 28 12 15 1026.5 1026.3 0.0
25/12:00am 14.7 9.9 5.5 54 4.4 E 20 26 11 14 1026.7 1026.5 0.0
 
Date/Time
CST
Temp
°C
App
Temp
°C
Dew
Point
Rel
Hum
%
Delta-T
°C
Wind Press
QNH
hPa
Press
MSL
hPa
Rain
since 9 am
mm
Dir
 
Spd
km/h
Gust
km/h
Spd
kts
Gust
kts
24/11:30pm 14.9 10.1 5.4 53 4.5 E 20 26 11 14 1026.8 1026.6 0.0
24/11:00pm 14.9 10.0 5.1 52 4.7 E 20 26 11 14 1026.9 1026.7 0.0
24/10:30pm 14.9 10.2 5.1 52 4.6 ENE 19 26 10 14 1026.7 1026.5 0.0
24/10:00pm 14.6 10.5 4.6 51 4.7 ESE 15 20 8 11 1026.9 1026.7 0.0
24/09:30pm 14.6 10.1 4.0 49 4.9 ESE 17 20 9 11 1026.9 1026.7 0.0
24/09:00pm 14.8 10.7 4.5 50 4.8 ESE 15 19 8 10 1027.1 1026.9 0.0
24/08:30pm 15.2 10.8 4.6 49 5.0 E 17 20 9 11 1026.9 1026.7 0.0
24/08:00pm 15.6 10.8 4.6 48 5.2 E 19 22 10 12 1027.1 1026.9 0.0
24/07:30pm 16.1 11.0 4.2 45 5.6 E 20 26 11 14 1027.1 1026.9 0.0
24/07:00pm 16.6 12.4 4.0 43 6.0 ENE 15 20 8 11 1027.0 1026.8 0.0
24/06:30pm 16.9 13.3 2.9 39 6.4 N 11 13 6 7 1026.4 1026.1 0.0
24/06:00pm 17.3 13.3 2.9 38 6.6 N 13 19 7 10 1026.3 1026.0 0.0
24/05:30pm 17.8 14.1 2.5 36 7.0 NNW 11 11 6 6 1026.3 1026.0 0.0
24/05:00pm 19.1 15.8 2.5 33 7.8 NNW 9 13 5 7 1026.0 1025.7 0.0
24/04:30pm 19.7 16.8 2.6 32 8.0 NW 7 13 4 7 1026.0 1025.7 0.0
24/04:00pm 19.9 15.9 2.7 32 8.1 N 13 19 7 10 1025.9 1025.6 0.0
24/03:30pm 20.4 16.5 3.2 32 8.2 N 13 20 7 11 1025.6 1025.3 0.0
24/03:00pm 20.1 16.1 2.9 32 8.1 N 13 20 7 11 1025.6 1025.3 0.0
24/02:30pm 20.5 16.5 2.8 31 8.4 N 13 20 7 11 1025.4 1025.1 0.0
24/02:00pm 19.6 15.2 2.9 33 7.9 NNE 15 24 8 13 1025.7 1025.4 0.0
24/01:30pm 19.5 15.0 2.4 32 8.0 NNE 15 26 8 14 1026.0 1025.7 0.0
24/01:00pm 19.5 14.4 2.8 33 7.9 NNE 19 28 10 15 1026.3 1026.0 0.0
24/12:30pm 19.7 15.6 4.2 36 7.5 NNE 15 26 8 14 1026.5 1026.3 0.0
24/12:00pm 18.2 12.6 3.7 38 6.9 NNE 22 32 12 17 1027.2 1027.0 0.0
24/11:30am 18.1 11.3 3.2 37 7.0 NNE 28 35 15 19 1027.3 1027.1 0.0
24/11:00am 17.3 12.2 4.3 42 6.2 ENE 20 28 11 15 1027.8 1027.6 0.0
24/10:30am 16.4 11.3 4.1 44 5.8 NE 20 30 11 16 1028.1 1027.9 0.0
24/10:00am 16.5 11.6 3.9 43 5.9 ENE 19 30 10 16 1028.3 1028.1 0.0
24/09:30am 14.9 10.0 4.3 49 4.9 ENE 19 24 10 13 1028.3 1028.1 0.0
24/09:00am 14.4 9.3 4.1 50 4.8 E 20 26 11 14 1028.2 1028.0 0.0
24/08:30am 13.2 8.4 4.6 56 4.0 ESE 19 22 10 12 1027.9 1027.7 0.0
24/08:00am 11.7 7.3 4.7 62 3.2 ESE 17 19 9 10 1027.8 1027.6 0.0
24/07:30am 10.8 7.1 4.5 65 2.9 NE 13 15 7 8 1027.6 1027.4 0.0
24/07:00am 10.5 7.4 3.8 63 3.0 NE 9 11 5 6 1027.4 1027.2 0.0
24/06:30am 10.2 8.8 3.3 62 3.0 CALM 0 0 0 0 1027.3 1027.1 0.0
24/06:00am 10.5 7.7 3.3 61 3.2 NNE 7 9 4 5 1027.1 1026.9 0.0
24/05:30am 11.7 10.4 4.0 59 3.5 CALM 0 0 0 0 1027.0 1026.8 0.0
24/05:00am 12.5 8.8 4.2 57 3.8 NW 13 20 7 11 1026.8 1026.6 0.0
24/04:30am 12.1 7.1 3.6 56 3.8 E 19 24 10 13 1026.3 1026.0 0.0
24/04:00am 12.1 6.9 3.6 56 3.8 E 20 26 11 14 1026.0 1025.7 0.0
24/03:30am 12.0 6.8 3.5 56 3.8 E 20 24 11 13 1026.2 1025.9 0.0
24/03:00am 12.0 6.4 3.5 56 3.8 E 22 26 12 14 1026.2 1025.9 0.0
24/02:30am 12.2 6.6 3.4 55 3.9 E 22 30 12 16 1026.4 1026.1 0.0
24/02:00am 12.3 7.1 3.5 55 4.0 E 20 24 11 13 1026.5 1026.3 0.0
24/01:30am 12.5 7.4 4.0 56 3.9 E 20 26 11 14 1026.6 1026.4 0.0
24/01:00am 12.8 7.4 4.3 56 3.9 E 22 30 12 16 1026.9 1026.7 0.0
24/12:30am 12.1 8.7 4.1 58 3.6 E 11 13 6 7 1027.2 1027.0 0.0
24/12:00am 12.0 7.9 4.2 59 3.5 E 15 17 8 9 1027.3 1027.1 0.0
 
Date/Time
CST
Temp
°C
App
Temp
°C
Dew
Point
Rel
Hum
%
Delta-T
°C
Wind Press
QNH
hPa
Press
MSL
hPa
Rain
since 9 am
mm
Dir
 
Spd
km/h
Gust
km/h
Spd
kts
Gust
kts
23/11:30pm 12.7 8.2 4.4 57 3.8 E 17 20 9 11 1027.2 1027.0 0.0
23/11:00pm 12.5 7.7 4.5 58 3.7 E 19 20 10 11 1027.4 1027.2 0.0
23/10:30pm 12.6 8.2 4.6 58 3.7 E 17 22 9 12 1027.4 1027.2 0.0
23/10:00pm 12.7 8.7 4.7 58 3.7 E 15 19 8 10 1027.5 1027.3 0.0

Other Formats:

Comma delimited format used in spreadsheet applications
http://www.bom.gov.au/fwo/IDS60801/IDS60801.94674.axf

JavaScript Object Notation format (JSON) in row-major order
http://www.bom.gov.au/fwo/IDS60801/IDS60801.94674.json